Alpine, California
Current Conditions -  °F | °C
As of 1:15 AM on Friday 24 Oct 2014 (Local Time) from KSEE Reporting Station
Clear Clear  
Wind Chill: 59°   Ceiling: Unl
Heat Index: 59°   Visibility: 10mi
Dew Point: 45°   Wind: 0mph
Humidity: 59%   Direction: NA
Pressure: 29.99"   Gusts: NA
Location:  32.83°N, 116.75°W
Report Text: KSEE 240815Z AUTO 00000KT 10SM CLR 15/07 A2999 RMK AO2
Loading
Personal Weather Stations






























Interactive Weather Map
Tropical Storm Tracking
New forecast layout! Learn more

10-Day Weather Forecast

Advertisements
Track Severe Weather on mobile